createdAt,value
2023-07-03T00:02:01.454Z,5.22
2023-07-03T00:04:29.394Z,4.85
2023-07-03T00:06:56.770Z,5.32
2023-07-03T00:09:24.146Z,4.97
2023-07-03T00:11:51.466Z,4.95
2023-07-03T00:14:18.807Z,4.97
2023-07-03T00:16:46.149Z,5.30
2023-07-03T00:19:16.866Z,4.78
2023-07-03T00:21:44.509Z,5.20
2023-07-03T00:24:12.873Z,4.80
2023-07-03T00:26:41.167Z,4.18
2023-07-03T00:29:08.422Z,4.72
2023-07-03T00:31:36.223Z,4.60
2023-07-03T00:34:03.558Z,4.30
2023-07-03T00:36:30.812Z,5.22
2023-07-03T00:38:59.668Z,5.20
2023-07-03T00:41:27.340Z,4.07
2023-07-03T00:43:54.624Z,4.85
2023-07-03T00:46:22.000Z,4.63
2023-07-03T00:48:49.938Z,4.55
2023-07-03T00:51:19.507Z,4.68
2023-07-03T00:53:46.854Z,4.45
2023-07-03T00:56:14.245Z,4.45
2023-07-03T00:58:41.595Z,4.20
2023-07-03T01:01:29.883Z,4.57
2023-07-03T01:04:06.217Z,4.50
2023-07-03T01:06:41.483Z,4.85
2023-07-03T01:09:12.625Z,4.63
2023-07-03T01:11:40.886Z,4.25
2023-07-03T01:14:10.697Z,5.22
2023-07-03T01:16:39.195Z,4.63
2023-07-03T01:19:14.122Z,4.40
2023-07-03T01:21:56.829Z,4.32
2023-07-03T01:27:06.312Z,4.43
2023-07-03T01:29:35.620Z,4.03
2023-07-03T01:32:06.801Z,3.70
2023-07-03T01:34:35.122Z,4.30
2023-07-03T01:37:04.694Z,4.15
2023-07-03T01:39:32.544Z,4.43
2023-07-03T01:42:00.571Z,4.15
2023-07-03T01:44:28.289Z,3.75
2023-07-03T01:46:55.598Z,4.20
2023-07-03T01:49:23.054Z,4.25
2023-07-03T01:52:01.338Z,3.63
2023-07-03T01:54:37.087Z,4.00
2023-07-03T01:57:05.894Z,3.00
2023-07-03T01:59:35.015Z,3.60
2023-07-03T02:02:16.765Z,4.22
2023-07-03T02:05:08.758Z,4.47
2023-07-03T02:07:38.762Z,3.60
2023-07-03T02:10:06.758Z,3.45
2023-07-03T02:12:34.214Z,3.80
2023-07-03T02:15:05.325Z,3.42
2023-07-03T02:17:32.879Z,3.30
2023-07-03T02:20:00.177Z,3.47
2023-07-03T02:22:27.626Z,3.67
2023-07-03T02:24:54.943Z,3.92
2023-07-03T02:27:23.046Z,3.13
2023-07-03T02:29:50.900Z,3.47
2023-07-03T02:32:18.242Z,3.25
2023-07-03T02:34:45.569Z,3.10
2023-07-03T02:37:15.067Z,3.63
2023-07-03T02:39:42.516Z,3.38
2023-07-03T02:42:09.884Z,3.65
2023-07-03T02:44:38.210Z,3.65
2023-07-03T02:47:06.256Z,3.83
2023-07-03T02:49:34.781Z,3.05
2023-07-03T02:52:05.884Z,3.22
2023-07-03T02:54:34.967Z,3.60
2023-07-03T02:57:03.390Z,3.22
2023-07-03T02:59:31.041Z,3.40
2023-07-03T03:01:59.324Z,3.50
2023-07-03T03:04:28.843Z,3.50
2023-07-03T03:06:56.398Z,3.13
2023-07-03T03:09:24.575Z,3.53
2023-07-03T03:11:53.190Z,3.70
2023-07-03T03:14:20.622Z,3.92
2023-07-03T03:16:47.986Z,3.58
2023-07-03T03:19:15.360Z,3.33
2023-07-03T03:21:43.007Z,3.35
2023-07-03T03:24:10.463Z,3.10
2023-07-03T03:26:37.835Z,3.22
2023-07-03T03:29:05.261Z,3.72
2023-07-03T03:31:32.566Z,3.50
2023-07-03T03:34:04.569Z,3.58
2023-07-03T03:36:34.318Z,3.28
2023-07-03T03:39:02.252Z,4.05
2023-07-03T03:41:30.439Z,3.53
2023-07-03T03:43:58.461Z,4.03
2023-07-03T03:46:26.181Z,3.30
2023-07-03T03:48:54.010Z,3.50
2023-07-03T03:51:22.800Z,3.08
2023-07-03T03:53:50.568Z,3.80
2023-07-03T03:56:17.987Z,3.55
2023-07-03T03:58:45.331Z,3.80
2023-07-03T04:01:12.798Z,3.22
2023-07-03T04:03:40.284Z,3.70
2023-07-03T04:06:09.234Z,3.20
2023-07-03T04:08:37.082Z,3.40
2023-07-03T04:11:04.406Z,3.33
2023-07-03T04:13:31.789Z,3.50
2023-07-03T04:16:02.672Z,3.53
2023-07-03T04:18:32.658Z,3.50
2023-07-03T04:21:00.632Z,2.85
2023-07-03T04:23:28.808Z,3.38
2023-07-03T04:25:56.494Z,3.50
2023-07-03T04:28:24.353Z,3.83
2023-07-03T04:30:51.661Z,3.70
2023-07-03T04:33:19.075Z,3.35
2023-07-03T04:35:48.120Z,3.85
2023-07-03T04:38:19.728Z,3.40
2023-07-03T04:40:47.123Z,3.60
2023-07-03T04:43:17.160Z,3.33
2023-07-03T04:45:51.413Z,3.58
2023-07-03T04:48:20.074Z,3.13
2023-07-03T04:50:50.477Z,3.33
2023-07-03T04:53:22.551Z,3.60
2023-07-03T04:55:51.258Z,4.00
2023-07-03T04:58:18.940Z,3.00
2023-07-03T05:00:48.207Z,3.58
2023-07-03T05:03:15.723Z,3.60
2023-07-03T05:05:43.669Z,3.70
2023-07-03T05:08:11.345Z,3.17
2023-07-03T05:10:38.662Z,3.38
2023-07-03T05:13:05.977Z,3.17
2023-07-03T05:15:33.418Z,3.35
2023-07-03T05:18:00.955Z,3.47
2023-07-03T05:20:30.019Z,3.67
2023-07-03T05:22:57.576Z,4.03
2023-07-03T05:25:25.105Z,3.75
2023-07-03T05:27:52.362Z,3.40
2023-07-03T05:30:19.865Z,3.60
2023-07-03T05:32:47.812Z,3.95
2023-07-03T05:35:15.350Z,3.17
2023-07-03T05:37:42.774Z,3.38
2023-07-03T05:40:10.936Z,3.17
2023-07-03T05:42:38.394Z,3.25
2023-07-03T05:45:06.385Z,3.15
2023-07-03T05:47:35.455Z,2.92
2023-07-03T05:50:04.246Z,3.88
2023-07-03T05:52:32.395Z,3.78
2023-07-03T05:54:59.823Z,3.38
2023-07-03T05:57:27.091Z,3.88
2023-07-03T05:59:55.874Z,3.30
2023-07-03T06:02:23.266Z,3.15
2023-07-03T06:04:50.730Z,3.15
2023-07-03T06:07:18.356Z,3.03
2023-07-03T06:09:46.911Z,3.38
2023-07-03T06:12:14.245Z,2.78
2023-07-03T06:14:41.636Z,2.80
2023-07-03T06:17:09.012Z,2.92
2023-07-03T06:19:36.401Z,2.88
2023-07-03T06:22:03.824Z,2.90
2023-07-03T06:24:31.109Z,3.17
2023-07-03T06:26:59.072Z,2.97
2023-07-03T06:29:26.358Z,3.25
2023-07-03T06:31:53.814Z,3.35
2023-07-03T06:34:21.188Z,2.75
2023-07-03T06:36:48.435Z,3.10
2023-07-03T06:39:16.195Z,2.38
2023-07-03T06:41:43.737Z,2.85
2023-07-03T06:44:17.820Z,3.05
2023-07-03T06:46:45.596Z,3.30
2023-07-03T06:49:13.938Z,2.90
2023-07-03T06:51:41.728Z,2.75
2023-07-03T06:54:09.295Z,2.50
2023-07-03T06:56:36.760Z,2.55
2023-07-03T06:59:04.105Z,2.53
2023-07-03T07:01:31.462Z,2.47
2023-07-03T07:03:58.919Z,2.38
2023-07-03T07:06:29.234Z,2.20
2023-07-03T07:08:56.692Z,2.50
2023-07-03T07:11:30.640Z,2.28
2023-07-03T07:14:00.015Z,2.20
2023-07-03T07:16:35.572Z,2.50
2023-07-03T07:19:06.270Z,2.42
2023-07-03T07:21:36.240Z,2.22
2023-07-03T07:24:14.491Z,2.35
2023-07-03T07:26:42.191Z,3.00
2023-07-03T07:29:09.677Z,2.95
2023-07-03T07:31:42.224Z,2.53
2023-07-03T07:34:11.708Z,2.95
2023-07-03T07:36:40.095Z,2.95
2023-07-03T07:39:08.438Z,3.00
2023-07-03T07:41:35.990Z,4.03
2023-07-03T07:44:03.464Z,3.30
2023-07-03T07:46:32.833Z,2.80
2023-07-03T07:49:01.512Z,3.17
2023-07-03T07:51:29.648Z,3.53
2023-07-03T07:53:58.117Z,3.22
2023-07-03T07:56:27.669Z,4.00
2023-07-03T07:58:55.344Z,3.75
2023-07-03T08:01:22.880Z,3.92
2023-07-03T08:03:50.270Z,3.78
2023-07-03T08:06:17.746Z,3.85
2023-07-03T08:08:45.623Z,4.60
2023-07-03T08:11:13.169Z,3.80
2023-07-03T08:13:41.551Z,3.53
2023-07-03T08:16:11.304Z,4.75
2023-07-03T08:18:39.024Z,4.07
2023-07-03T08:21:06.563Z,4.18
2023-07-03T08:23:34.797Z,3.70
2023-07-03T08:26:02.728Z,4.05
2023-07-03T08:28:30.832Z,4.30
2023-07-03T08:31:02.052Z,4.13
2023-07-03T08:33:29.545Z,4.70
2023-07-03T08:38:27.210Z,4.68
2023-07-03T08:41:02.066Z,4.35
2023-07-03T08:43:35.371Z,4.75
2023-07-03T08:46:06.299Z,5.25
2023-07-03T08:48:36.769Z,4.78
2023-07-03T08:51:08.225Z,5.32
2023-07-03T08:53:39.574Z,4.78
2023-07-03T08:56:16.787Z,5.20
2023-07-03T08:58:47.738Z,5.20
2023-07-03T09:01:47.134Z,5.07
2023-07-03T09:04:39.182Z,5.75
2023-07-03T09:07:10.188Z,5.23
2023-07-03T09:10:09.064Z,4.85
2023-07-03T09:12:42.760Z,5.88
2023-07-03T09:15:24.422Z,6.25
2023-07-03T09:17:53.461Z,6.28
2023-07-03T09:20:23.687Z,6.45
2023-07-03T09:23:05.242Z,6.03
2023-07-03T09:26:03.111Z,6.43
2023-07-03T09:28:37.073Z,7.18
2023-07-03T09:31:05.117Z,6.40
2023-07-03T09:33:32.891Z,6.28
2023-07-03T09:36:19.427Z,6.10
2023-07-03T09:38:48.135Z,6.03
2023-07-03T09:41:29.199Z,5.97
2023-07-03T09:43:57.247Z,5.90
2023-07-03T09:46:25.896Z,6.03
2023-07-03T09:48:54.924Z,6.18
2023-07-03T09:51:31.365Z,6.22
2023-07-03T09:54:05.781Z,6.25
2023-07-03T09:56:34.829Z,6.78
2023-07-03T09:59:04.867Z,7.03
2023-07-03T10:06:59.848Z,6.07
2023-07-03T10:12:10.641Z,6.45
2023-07-03T10:15:08.063Z,6.43
2023-07-03T10:17:43.341Z,6.38
2023-07-03T10:20:28.862Z,6.25
2023-07-03T10:22:59.877Z,6.45
2023-07-03T10:25:35.530Z,6.80
2023-07-03T10:28:09.622Z,7.55
2023-07-03T10:30:40.744Z,7.15
2023-07-03T10:33:15.528Z,7.05
2023-07-03T10:35:44.426Z,6.70
2023-07-03T10:38:17.822Z,6.90
2023-07-03T10:40:56.424Z,7.22
2023-07-03T10:43:27.338Z,7.30
2023-07-03T10:45:55.637Z,6.60
2023-07-03T10:48:27.636Z,7.32
2023-07-03T10:51:16.900Z,6.28
2023-07-03T10:53:53.487Z,6.43
2023-07-03T10:56:49.123Z,7.13
2023-07-03T10:59:28.212Z,6.78
2023-07-03T11:02:36.628Z,5.78
2023-07-03T11:05:15.394Z,7.30
2023-07-03T11:07:51.963Z,7.43
2023-07-03T11:10:25.273Z,6.25
2023-07-03T11:13:17.671Z,7.35
2023-07-03T11:16:04.090Z,6.45
2023-07-03T11:24:30.266Z,6.47
2023-07-03T11:29:49.467Z,6.43
2023-07-03T11:32:17.712Z,6.82
2023-07-03T11:40:38.914Z,6.60
2023-07-03T11:45:57.903Z,6.65
2023-07-03T11:48:34.221Z,6.90
2023-07-03T11:51:12.309Z,6.55
2023-07-03T11:53:41.137Z,6.35
2023-07-03T11:56:15.420Z,6.18
2023-07-03T11:58:44.695Z,6.97
2023-07-03T12:01:32.639Z,6.65
2023-07-03T12:04:03.705Z,6.43
2023-07-03T12:06:40.161Z,6.30
2023-07-03T12:09:22.456Z,6.57
2023-07-03T12:12:01.803Z,5.63
2023-07-03T12:14:41.375Z,6.20
2023-07-03T12:17:35.490Z,6.43
2023-07-03T12:20:09.414Z,6.13
2023-07-03T12:22:46.293Z,6.18
2023-07-03T12:25:26.636Z,6.45
2023-07-03T12:27:55.620Z,5.43
2023-07-03T12:30:31.483Z,6.22
2023-07-03T12:33:00.441Z,6.15
2023-07-03T12:35:31.877Z,6.43
2023-07-03T12:38:10.937Z,6.43
2023-07-03T12:40:46.188Z,5.55
2023-07-03T12:43:19.109Z,5.93
2023-07-03T12:45:54.752Z,6.80
2023-07-03T12:48:23.746Z,5.60
2023-07-03T12:50:57.592Z,5.78
2023-07-03T12:53:33.755Z,5.35
2023-07-03T12:56:06.038Z,5.95
2023-07-03T12:58:34.415Z,5.88
2023-07-03T13:01:07.341Z,5.75
2023-07-03T13:03:44.736Z,6.07
2023-07-03T13:06:31.540Z,6.45
2023-07-03T13:08:59.484Z,6.43
2023-07-03T13:11:45.055Z,6.38
2023-07-03T13:14:13.057Z,5.15
2023-07-03T13:16:46.441Z,5.03
2023-07-03T13:19:29.167Z,5.88
2023-07-03T13:24:26.669Z,5.65
2023-07-03T13:26:55.275Z,5.35
2023-07-03T13:29:29.700Z,5.70
2023-07-03T13:32:18.350Z,5.88
2023-07-03T13:35:12.367Z,5.78
2023-07-03T13:37:39.800Z,6.05
2023-07-03T13:40:07.861Z,5.72
2023-07-03T13:42:36.076Z,5.68
2023-07-03T13:45:04.233Z,5.07
2023-07-03T13:47:31.633Z,5.70
2023-07-03T13:49:58.929Z,5.07
2023-07-03T13:52:27.679Z,5.38
2023-07-03T13:54:55.014Z,5.10
2023-07-03T13:57:22.328Z,5.20
2023-07-03T13:59:49.688Z,5.28
2023-07-03T14:02:17.055Z,5.18
2023-07-03T14:04:44.780Z,5.00
2023-07-03T14:07:12.304Z,4.53
2023-07-03T14:09:39.597Z,5.53
2023-07-03T14:12:07.269Z,5.40
2023-07-03T14:14:34.599Z,5.50
2023-07-03T14:17:01.917Z,4.75
2023-07-03T14:19:29.360Z,4.47
2023-07-03T14:21:56.768Z,5.30
2023-07-03T14:24:24.066Z,5.28
2023-07-03T14:26:51.504Z,5.10
2023-07-03T14:29:19.442Z,5.03
2023-07-03T14:31:48.079Z,5.22
2023-07-03T14:34:17.471Z,4.75
2023-07-03T14:36:44.824Z,5.70
2023-07-03T14:39:12.245Z,5.38
2023-07-03T14:41:39.662Z,4.28
2023-07-03T14:44:07.037Z,5.07
2023-07-03T14:46:34.426Z,5.15
2023-07-03T14:49:01.834Z,4.70
2023-07-03T14:51:29.141Z,5.40
2023-07-03T14:53:56.497Z,4.68
2023-07-03T14:56:23.805Z,5.30
2023-07-03T14:58:51.280Z,5.05
2023-07-03T15:01:18.672Z,5.30
2023-07-03T15:03:46.166Z,4.90
2023-07-03T15:06:13.634Z,4.53
2023-07-03T15:08:41.156Z,4.38
2023-07-03T15:11:15.196Z,4.85
2023-07-03T15:13:43.260Z,4.88
2023-07-03T15:16:15.875Z,5.07
2023-07-03T15:18:43.409Z,4.60
2023-07-03T15:21:10.837Z,4.82
2023-07-03T15:23:40.797Z,4.85
2023-07-03T15:26:09.093Z,4.82
2023-07-03T15:28:36.476Z,4.75
2023-07-03T15:31:04.471Z,5.20
2023-07-03T15:33:31.960Z,5.00
2023-07-03T15:36:01.332Z,4.75
2023-07-03T15:38:28.682Z,4.60
2023-07-03T15:40:57.919Z,5.13
2023-07-03T15:43:26.364Z,5.22
2023-07-03T15:46:02.652Z,4.97
2023-07-03T15:48:32.972Z,4.78
2023-07-03T15:51:01.305Z,5.28
2023-07-03T15:53:30.399Z,4.97
2023-07-03T15:56:05.702Z,4.45
2023-07-03T15:58:42.018Z,4.65
2023-07-03T16:01:15.663Z,4.95
2023-07-03T16:03:43.228Z,4.85
2023-07-03T16:06:15.129Z,5.30
2023-07-03T16:08:43.528Z,5.20
2023-07-03T16:11:17.288Z,4.80
2023-07-03T16:13:45.671Z,5.00
2023-07-03T16:16:15.437Z,4.47
2023-07-03T16:18:58.888Z,6.07
2023-07-03T16:21:31.700Z,5.28
2023-07-03T16:24:00.033Z,5.30
2023-07-03T16:26:28.467Z,4.88
2023-07-03T16:28:56.229Z,5.22
2023-07-03T16:31:28.690Z,5.00
2023-07-03T16:36:28.337Z,5.22
2023-07-03T16:39:00.434Z,4.65
2023-07-03T16:41:29.829Z,4.10
2023-07-03T16:43:58.760Z,3.47
2023-07-03T16:46:28.309Z,2.80
2023-07-03T16:48:57.357Z,2.65
2023-07-03T16:51:26.223Z,3.10
2023-07-03T16:53:53.830Z,3.13
2023-07-03T16:56:33.476Z,2.45
2023-07-03T16:59:01.008Z,2.90
2023-07-03T17:01:30.036Z,3.13
2023-07-03T17:03:57.580Z,3.45
2023-07-03T17:06:36.123Z,2.88
2023-07-03T17:09:04.864Z,3.60
2023-07-03T17:11:32.453Z,3.25
2023-07-03T17:14:00.892Z,2.95
2023-07-03T17:16:29.242Z,3.47
2023-07-03T17:18:56.650Z,3.20
2023-07-03T17:21:23.973Z,3.33
2023-07-03T17:23:58.469Z,3.40
2023-07-03T17:26:26.255Z,2.53
2023-07-03T17:28:53.618Z,2.97
2023-07-03T17:31:24.899Z,2.55
2023-07-03T17:33:53.205Z,2.42
2023-07-03T17:36:21.452Z,2.58
2023-07-03T17:38:48.888Z,2.95
2023-07-03T17:41:19.580Z,3.03
2023-07-03T17:43:47.575Z,2.90
2023-07-03T17:46:16.773Z,2.55
2023-07-03T17:48:44.959Z,2.55
2023-07-03T17:51:13.709Z,2.80
2023-07-03T17:53:45.479Z,2.80
2023-07-03T17:56:12.960Z,3.38
2023-07-03T17:58:44.702Z,3.25
2023-07-03T18:01:12.867Z,2.90
2023-07-03T18:03:40.745Z,2.90
2023-07-03T18:06:09.106Z,2.85
2023-07-03T18:08:36.954Z,2.17
2023-07-03T18:11:04.536Z,3.10
2023-07-03T18:13:32.130Z,2.22
2023-07-03T18:15:59.943Z,2.63
2023-07-03T18:18:27.644Z,2.85
2023-07-03T18:20:55.139Z,2.60
2023-07-03T18:23:22.815Z,2.35
2023-07-03T18:25:50.579Z,2.17
2023-07-03T18:28:18.872Z,2.35
2023-07-03T18:30:46.546Z,2.00
2023-07-03T18:33:13.852Z,2.22
2023-07-03T18:35:41.350Z,2.08
2023-07-03T18:38:08.888Z,1.67
2023-07-03T18:40:36.575Z,2.13
2023-07-03T18:43:03.927Z,1.50
2023-07-03T18:45:31.231Z,1.90
2023-07-03T18:47:58.638Z,1.67
2023-07-03T18:50:26.507Z,1.73
2023-07-03T18:52:54.019Z,1.80
2023-07-03T18:55:22.621Z,2.88
2023-07-03T18:57:50.421Z,1.55
2023-07-03T19:00:17.918Z,2.05
2023-07-03T19:02:46.545Z,1.92
2023-07-03T19:05:14.809Z,1.85
2023-07-03T19:07:42.297Z,1.90
2023-07-03T19:12:41.087Z,2.05
2023-07-03T19:15:09.164Z,1.80
2023-07-03T19:17:36.537Z,2.13
2023-07-03T19:20:04.275Z,1.80
2023-07-03T19:22:31.793Z,1.90
2023-07-03T19:24:59.716Z,1.83
2023-07-03T19:27:27.228Z,1.80
2023-07-03T19:29:55.072Z,1.75
2023-07-03T19:32:24.838Z,1.83
2023-07-03T19:34:53.280Z,2.00
2023-07-03T19:37:20.901Z,1.67
2023-07-03T19:39:48.217Z,1.73
2023-07-03T19:42:15.895Z,1.73
2023-07-03T19:44:43.608Z,1.92
2023-07-03T19:47:11.004Z,1.95
2023-07-03T19:49:38.500Z,1.90
2023-07-03T19:52:06.465Z,2.10
2023-07-03T19:54:33.938Z,1.55
2023-07-03T19:57:01.298Z,2.55
2023-07-03T19:59:29.866Z,2.67
2023-07-03T20:01:57.807Z,2.60
2023-07-03T20:04:28.549Z,2.30
2023-07-03T20:06:56.132Z,2.38
2023-07-03T20:09:24.274Z,2.45
2023-07-03T20:11:51.712Z,1.70
2023-07-03T20:14:20.027Z,1.90
2023-07-03T20:16:47.634Z,2.17
2023-07-03T20:19:15.484Z,1.92
2023-07-03T20:21:43.053Z,1.98
2023-07-03T20:24:10.811Z,1.90
2023-07-03T20:26:39.327Z,1.40
2023-07-03T20:29:06.723Z,1.50
2023-07-03T20:31:34.119Z,1.70
2023-07-03T20:34:01.476Z,1.00
2023-07-03T20:36:30.278Z,1.30
2023-07-03T20:38:57.938Z,1.75
2023-07-03T20:41:25.255Z,1.58
2023-07-03T20:43:52.553Z,1.50
2023-07-03T20:46:22.739Z,1.65
2023-07-03T20:48:56.478Z,1.45
2023-07-03T20:51:27.700Z,1.50
2023-07-03T20:53:55.244Z,1.30
2023-07-03T20:56:27.360Z,1.40
2023-07-03T20:58:56.775Z,1.40
2023-07-03T21:01:35.830Z,1.45
2023-07-03T21:04:05.641Z,1.85
2023-07-03T21:06:37.456Z,1.13
2023-07-03T21:09:05.948Z,1.90
2023-07-03T21:11:36.070Z,1.27
2023-07-03T21:14:05.995Z,1.40
2023-07-03T21:16:35.323Z,1.48
2023-07-03T21:19:03.154Z,1.50
2023-07-03T21:21:32.634Z,1.55
2023-07-03T21:24:04.284Z,1.58
2023-07-03T21:26:32.727Z,1.65
2023-07-03T21:29:00.267Z,1.50
2023-07-03T21:31:30.581Z,1.17
2023-07-03T21:33:58.131Z,1.50
2023-07-03T21:36:28.271Z,1.40
2023-07-03T21:38:57.437Z,1.38
2023-07-03T21:41:29.683Z,1.63
2023-07-03T21:43:59.351Z,1.58
2023-07-03T21:46:29.009Z,1.48
2023-07-03T21:48:57.118Z,1.52
2023-07-03T21:51:27.488Z,1.55
2023-07-03T21:53:55.067Z,1.38
2023-07-03T21:56:33.658Z,1.60
2023-07-03T21:59:04.248Z,1.40
2023-07-03T22:01:38.463Z,1.40
2023-07-03T22:04:07.536Z,1.52
2023-07-03T22:06:34.956Z,1.33
2023-07-03T22:09:02.283Z,1.52
2023-07-03T22:11:30.828Z,1.60
2023-07-03T22:13:58.521Z,1.33
2023-07-03T22:16:26.300Z,1.88
2023-07-03T22:18:53.722Z,1.58
2023-07-03T22:21:21.917Z,1.80
2023-07-03T22:23:51.209Z,2.10
2023-07-03T22:26:19.212Z,2.13
2023-07-03T22:28:46.941Z,1.73
2023-07-03T22:31:14.523Z,1.80
2023-07-03T22:33:42.185Z,1.65
2023-07-03T22:36:11.089Z,1.42
2023-07-03T22:38:38.553Z,1.63
2023-07-03T22:41:05.941Z,1.77
2023-07-03T22:43:33.251Z,1.40
2023-07-03T22:46:05.238Z,1.60
2023-07-03T22:48:33.296Z,1.35
2023-07-03T22:51:02.457Z,1.70
2023-07-03T22:53:30.309Z,1.60
2023-07-03T22:55:57.685Z,1.60
2023-07-03T22:58:25.252Z,1.65
2023-07-03T23:00:54.436Z,1.80
2023-07-03T23:03:21.780Z,1.50
2023-07-03T23:05:51.667Z,1.75
2023-07-03T23:08:19.254Z,1.30
2023-07-03T23:10:54.546Z,1.30
2023-07-03T23:13:23.180Z,1.38
2023-07-03T23:15:59.943Z,1.70
2023-07-03T23:18:30.782Z,1.75
2023-07-03T23:21:03.733Z,1.63
2023-07-03T23:23:33.556Z,1.40
2023-07-03T23:26:04.798Z,1.67
2023-07-03T23:28:34.578Z,1.38
2023-07-03T23:31:05.551Z,1.42
2023-07-03T23:33:34.413Z,1.75
2023-07-03T23:36:06.060Z,1.88
2023-07-03T23:38:35.578Z,1.63
2023-07-03T23:41:05.702Z,1.63
2023-07-03T23:43:33.931Z,1.52
2023-07-03T23:46:05.637Z,1.27
2023-07-03T23:48:33.506Z,1.88
2023-07-03T23:51:04.152Z,1.75
2023-07-03T23:53:33.966Z,1.40
2023-07-03T23:56:07.274Z,1.60
2023-07-03T23:58:36.870Z,1.60
